createdAt,value
2023-04-08T00:01:10.841Z,7.07
2023-04-08T00:03:38.059Z,6.65
2023-04-08T00:06:05.059Z,6.28
2023-04-08T00:08:32.554Z,6.72
2023-04-08T00:10:59.358Z,6.88
2023-04-08T00:13:26.757Z,7.28
2023-04-08T00:15:53.677Z,6.97
2023-04-08T00:18:21.178Z,6.88
2023-04-08T00:20:48.082Z,6.00
2023-04-08T00:23:15.072Z,6.60
2023-04-08T00:25:42.111Z,6.63
2023-04-08T00:28:09.195Z,7.00
2023-04-08T00:30:36.522Z,6.65
2023-04-08T00:33:04.519Z,7.05
2023-04-08T00:35:31.541Z,6.40
2023-04-08T00:37:58.321Z,6.70
2023-04-08T00:40:25.399Z,6.22
2023-04-08T00:42:52.423Z,6.15
2023-04-08T00:45:19.511Z,5.90
2023-04-08T00:47:47.271Z,6.32
2023-04-08T00:50:14.080Z,6.70
2023-04-08T00:52:40.974Z,6.90
2023-04-08T00:55:08.277Z,6.75
2023-04-08T00:57:35.744Z,6.20
2023-04-08T01:00:06.007Z,6.60
2023-04-08T01:02:57.885Z,6.55
2023-04-08T01:05:40.530Z,6.38
2023-04-08T01:08:10.533Z,6.28
2023-04-08T01:10:39.100Z,6.72
2023-04-08T01:13:10.292Z,6.63
2023-04-08T01:15:39.312Z,6.90
2023-04-08T01:18:13.532Z,6.45
2023-04-08T01:20:43.025Z,6.20
2023-04-08T01:23:21.901Z,7.07
2023-04-08T01:25:54.113Z,6.22
2023-04-08T01:28:28.591Z,6.55
2023-04-08T01:30:58.414Z,6.50
2023-04-08T01:33:27.652Z,6.32
2023-04-08T01:35:56.854Z,7.10
2023-04-08T01:38:26.666Z,6.78
2023-04-08T01:40:55.437Z,7.72
2023-04-08T01:43:23.042Z,7.22
2023-04-08T01:45:54.456Z,7.93
2023-04-08T01:48:22.382Z,6.70
2023-04-08T01:50:51.352Z,7.72
2023-04-08T01:53:18.463Z,7.38
2023-04-08T01:55:46.789Z,7.50
2023-04-08T01:58:21.584Z,7.18
2023-04-08T02:00:49.916Z,7.32
2023-04-08T02:03:20.381Z,8.02
2023-04-08T02:05:47.528Z,8.27
2023-04-08T02:08:14.452Z,7.55
2023-04-08T02:10:41.809Z,7.90
2023-04-08T02:13:08.857Z,8.15
2023-04-08T02:15:42.845Z,7.88
2023-04-08T02:18:16.851Z,8.25
2023-04-08T02:20:47.642Z,7.75
2023-04-08T02:23:22.692Z,8.00
2023-04-08T02:25:50.661Z,8.30
2023-04-08T02:28:19.729Z,7.32
2023-04-08T02:30:52.562Z,8.63
2023-04-08T02:33:22.364Z,7.90
2023-04-08T02:35:51.644Z,8.10
2023-04-08T02:38:18.867Z,7.82
2023-04-08T02:40:45.714Z,8.07
2023-04-08T02:43:12.499Z,9.13
2023-04-08T02:45:42.619Z,7.75
2023-04-08T02:48:09.997Z,8.77
2023-04-08T02:50:37.486Z,8.88
2023-04-08T02:53:04.616Z,8.48
2023-04-08T02:55:31.689Z,8.40
2023-04-08T02:57:58.648Z,8.52
2023-04-08T03:00:25.731Z,8.90
2023-04-08T03:02:52.744Z,7.78
2023-04-08T03:05:19.910Z,8.23
2023-04-08T03:07:47.019Z,8.20
2023-04-08T03:10:14.205Z,7.47
2023-04-08T03:12:41.324Z,8.23
2023-04-08T03:15:08.640Z,8.00
2023-04-08T03:17:35.825Z,8.07
2023-04-08T03:20:06.995Z,8.02
2023-04-08T03:22:34.357Z,7.85
2023-04-08T03:25:01.230Z,7.93
2023-04-08T03:27:28.192Z,8.13
2023-04-08T03:29:55.039Z,7.82
2023-04-08T03:32:21.879Z,7.68
2023-04-08T03:34:51.337Z,7.53
2023-04-08T03:37:18.892Z,7.72
2023-04-08T03:39:46.502Z,7.80
2023-04-08T03:42:13.467Z,7.85
2023-04-08T03:44:40.294Z,7.25
2023-04-08T03:47:07.103Z,7.60
2023-04-08T03:49:33.908Z,7.15
2023-04-08T03:52:00.886Z,7.32
2023-04-08T03:54:27.854Z,7.47
2023-04-08T03:56:56.347Z,7.57
2023-04-08T03:59:23.268Z,7.97
2023-04-08T04:01:51.533Z,8.15
2023-04-08T04:04:18.850Z,8.32
2023-04-08T04:06:46.241Z,7.70
2023-04-08T04:09:13.606Z,7.57
2023-04-08T04:11:40.636Z,7.35
2023-04-08T04:14:07.472Z,8.32
2023-04-08T04:16:34.380Z,8.88
2023-04-08T04:19:01.513Z,7.88
2023-04-08T04:21:28.527Z,9.10
2023-04-08T04:23:55.744Z,7.65
2023-04-08T04:26:22.743Z,8.52
2023-04-08T04:28:50.195Z,8.02
2023-04-08T04:31:26.557Z,8.40
2023-04-08T04:33:54.080Z,8.43
2023-04-08T04:36:21.205Z,8.57
2023-04-08T04:38:50.307Z,8.93
2023-04-08T04:41:17.808Z,8.38
2023-04-08T04:43:44.637Z,8.32
2023-04-08T04:46:11.556Z,9.02
2023-04-08T04:48:38.417Z,10.63
2023-04-08T04:51:07.532Z,9.55
2023-04-08T04:53:34.889Z,9.63
2023-04-08T04:56:02.057Z,8.70
2023-04-08T04:58:29.614Z,7.88
2023-04-08T05:00:57.016Z,8.13
2023-04-08T05:03:24.209Z,8.00
2023-04-08T05:05:55.166Z,8.23
2023-04-08T05:08:22.149Z,7.55
2023-04-08T05:10:50.884Z,7.07
2023-04-08T05:13:18.758Z,6.82
2023-04-08T05:15:46.006Z,6.53
2023-04-08T05:18:13.642Z,6.63
2023-04-08T05:20:40.572Z,6.30
2023-04-08T05:23:08.126Z,6.28
2023-04-08T05:25:35.138Z,7.15
2023-04-08T05:28:02.069Z,6.40
2023-04-08T05:30:28.938Z,6.90
2023-04-08T05:32:58.506Z,6.80
2023-04-08T05:35:26.884Z,7.95
2023-04-08T05:37:53.795Z,7.90
2023-04-08T05:40:20.843Z,8.25
2023-04-08T05:42:47.977Z,8.25
2023-04-08T05:45:15.039Z,7.65
2023-04-08T05:47:41.921Z,7.45
2023-04-08T05:50:09.195Z,7.40
2023-04-08T05:52:36.131Z,7.78
2023-04-08T05:55:03.041Z,7.10
2023-04-08T05:57:29.870Z,7.63
2023-04-08T05:59:56.800Z,7.43
2023-04-08T06:02:23.970Z,6.75
2023-04-08T06:04:51.130Z,7.05
2023-04-08T06:07:17.976Z,6.40
2023-04-08T06:09:45.447Z,6.78
2023-04-08T06:12:12.411Z,7.57
2023-04-08T06:14:39.928Z,7.60
2023-04-08T06:17:09.352Z,7.15
2023-04-08T06:19:36.182Z,7.43
2023-04-08T06:22:03.248Z,6.85
2023-04-08T06:24:30.283Z,7.50
2023-04-08T06:26:57.347Z,6.32
2023-04-08T06:29:24.375Z,7.63
2023-04-08T06:31:51.646Z,7.32
2023-04-08T06:34:18.674Z,7.70
2023-04-08T06:36:45.509Z,6.97
2023-04-08T06:39:12.464Z,7.20
2023-04-08T06:41:39.408Z,6.90
2023-04-08T06:44:06.494Z,6.82
2023-04-08T06:46:33.495Z,7.57
2023-04-08T06:49:00.436Z,6.78
2023-04-08T06:51:28.032Z,6.85
2023-04-08T06:53:55.211Z,7.07
2023-04-08T06:56:23.016Z,7.85
2023-04-08T06:58:50.157Z,6.63
2023-04-08T07:01:17.421Z,6.90
2023-04-08T07:03:44.358Z,7.43
2023-04-08T07:06:11.549Z,7.10
2023-04-08T07:08:38.849Z,6.45
2023-04-08T07:11:05.856Z,6.80
2023-04-08T07:13:32.876Z,7.07
2023-04-08T07:15:59.922Z,7.18
2023-04-08T07:18:28.170Z,6.38
2023-04-08T07:20:55.693Z,6.95
2023-04-08T07:23:22.974Z,6.60
2023-04-08T07:25:49.813Z,6.75
2023-04-08T07:28:16.749Z,6.82
2023-04-08T07:30:43.557Z,7.45
2023-04-08T07:33:10.533Z,6.13
2023-04-08T07:35:38.028Z,6.43
2023-04-08T07:38:09.296Z,6.43
2023-04-08T07:40:36.648Z,5.93
2023-04-08T07:43:03.606Z,5.68
2023-04-08T07:45:30.640Z,6.03
2023-04-08T07:47:57.718Z,6.15
2023-04-08T07:50:24.700Z,6.10
2023-04-08T07:52:53.397Z,5.88
2023-04-08T07:55:20.388Z,5.70
2023-04-08T07:57:47.453Z,5.70
2023-04-08T08:00:21.067Z,5.40
2023-04-08T08:02:49.023Z,5.20
2023-04-08T08:05:16.225Z,5.75
2023-04-08T08:07:43.404Z,5.13
2023-04-08T08:10:11.388Z,4.43
2023-04-08T08:12:39.039Z,5.30
2023-04-08T08:15:07.413Z,5.18
2023-04-08T08:17:35.544Z,5.47
2023-04-08T08:20:04.620Z,5.53
2023-04-08T08:22:31.678Z,5.53
2023-04-08T08:24:59.557Z,4.78
2023-04-08T08:27:26.601Z,5.55
2023-04-08T08:29:53.680Z,5.45
2023-04-08T08:32:20.708Z,5.38
2023-04-08T08:34:47.671Z,5.25
2023-04-08T08:37:14.825Z,5.75
2023-04-08T08:39:41.819Z,4.97
2023-04-08T08:42:19.628Z,5.53
2023-04-08T08:44:46.860Z,5.53
2023-04-08T08:47:14.152Z,5.38
2023-04-08T08:49:41.704Z,5.07
2023-04-08T08:52:08.633Z,5.47
2023-04-08T08:54:35.818Z,5.05
2023-04-08T08:57:02.689Z,4.78
2023-04-08T08:59:29.534Z,4.55
2023-04-08T09:01:56.763Z,5.30
2023-04-08T09:04:26.986Z,4.90
2023-04-08T09:07:11.197Z,5.13
2023-04-08T09:09:49.875Z,5.25
2023-04-08T09:12:18.111Z,5.63
2023-04-08T09:14:45.421Z,6.05
2023-04-08T09:17:12.885Z,5.68
2023-04-08T09:19:40.202Z,5.85
2023-04-08T09:22:12.269Z,5.93
2023-04-08T09:24:39.260Z,5.15
2023-04-08T09:27:06.651Z,5.07
2023-04-08T09:29:38.222Z,4.32
2023-04-08T09:32:06.773Z,4.95
2023-04-08T09:34:34.577Z,5.20
2023-04-08T09:37:02.121Z,5.57
2023-04-08T09:39:29.045Z,5.53
2023-04-08T09:42:01.486Z,5.80
2023-04-08T09:44:30.630Z,5.55
2023-04-08T09:47:20.819Z,5.97
2023-04-08T09:49:55.438Z,5.93
2023-04-08T09:52:30.692Z,6.20
2023-04-08T09:55:06.595Z,5.88
2023-04-08T09:58:11.625Z,5.45
2023-04-08T10:00:44.288Z,6.10
2023-04-08T10:03:28.670Z,6.28
2023-04-08T10:05:59.862Z,6.22
2023-04-08T10:08:27.379Z,5.80
2023-04-08T10:10:56.390Z,5.88
2023-04-08T10:13:24.208Z,6.38
2023-04-08T10:15:51.265Z,6.18
2023-04-08T10:18:20.631Z,5.95
2023-04-08T10:20:49.269Z,6.38
2023-04-08T10:23:18.154Z,6.35
2023-04-08T10:25:47.671Z,6.50
2023-04-08T10:28:22.692Z,6.30
2023-04-08T10:30:50.279Z,6.13
2023-04-08T10:33:21.229Z,5.90
2023-04-08T10:36:07.095Z,6.57
2023-04-08T10:38:34.232Z,6.25
2023-04-08T10:41:02.697Z,6.55
2023-04-08T10:43:34.596Z,7.20
2023-04-08T10:46:02.006Z,6.93
2023-04-08T10:48:32.187Z,6.40
2023-04-08T10:51:01.998Z,6.50
2023-04-08T10:53:33.945Z,6.85
2023-04-08T10:56:15.774Z,7.28
2023-04-08T10:58:55.304Z,6.68
2023-04-08T11:01:22.928Z,6.63
2023-04-08T11:03:50.867Z,6.53
2023-04-08T11:06:19.455Z,6.60
2023-04-08T11:08:47.297Z,6.80
2023-04-08T11:11:17.788Z,6.80
2023-04-08T11:13:53.467Z,7.25
2023-04-08T11:16:23.128Z,6.80
2023-04-08T11:18:51.315Z,7.00
2023-04-08T11:21:18.496Z,7.13
2023-04-08T11:23:45.671Z,8.02
2023-04-08T11:26:14.171Z,7.70
2023-04-08T11:28:41.303Z,7.72
2023-04-08T11:31:09.199Z,7.47
2023-04-08T11:33:36.478Z,8.25
2023-04-08T11:36:08.480Z,6.80
2023-04-08T11:38:40.958Z,8.07
2023-04-08T11:41:08.451Z,8.10
2023-04-08T11:43:41.046Z,6.82
2023-04-08T11:46:12.549Z,7.30
2023-04-08T11:48:40.014Z,8.05
2023-04-08T11:51:09.392Z,7.72
2023-04-08T11:53:37.873Z,7.55
2023-04-08T11:56:22.439Z,7.40
2023-04-08T11:58:50.020Z,7.60
2023-04-08T12:01:16.860Z,7.25
2023-04-08T12:04:00.091Z,7.78
2023-04-08T12:06:28.656Z,8.10
2023-04-08T12:08:56.874Z,8.27
2023-04-08T12:11:24.365Z,7.32
2023-04-08T12:13:52.803Z,7.82
2023-04-08T12:16:20.731Z,8.30
2023-04-08T12:18:48.049Z,7.95
2023-04-08T12:21:15.570Z,8.20
2023-04-08T12:23:42.729Z,7.53
2023-04-08T12:26:09.726Z,8.80
2023-04-08T12:28:36.671Z,8.15
2023-04-08T12:31:03.941Z,7.78
2023-04-08T12:33:31.897Z,8.57
2023-04-08T12:35:59.586Z,8.35
2023-04-08T12:38:27.270Z,8.35
2023-04-08T12:40:54.941Z,8.70
2023-04-08T12:43:23.669Z,8.80
2023-04-08T12:45:51.122Z,9.40
2023-04-08T12:48:18.332Z,10.02
2023-04-08T12:50:45.200Z,9.32
2023-04-08T12:53:12.149Z,9.75
2023-04-08T12:55:39.094Z,10.23
2023-04-08T12:58:06.161Z,9.40
2023-04-08T13:00:33.465Z,9.32
2023-04-08T13:03:00.938Z,10.18
2023-04-08T13:05:41.974Z,9.65
2023-04-08T13:08:09.478Z,10.18
2023-04-08T13:10:36.594Z,10.25
2023-04-08T13:13:03.978Z,10.10
2023-04-08T13:15:31.300Z,9.82
2023-04-08T13:17:58.197Z,9.60
2023-04-08T13:20:26.228Z,10.88
2023-04-08T13:22:53.704Z,11.27
2023-04-08T13:25:20.909Z,10.85
2023-04-08T13:27:48.019Z,11.55
2023-04-08T13:30:15.059Z,12.23
2023-04-08T13:32:42.087Z,12.18
2023-04-08T13:35:09.907Z,11.43
2023-04-08T13:37:36.845Z,11.98
2023-04-08T13:40:04.429Z,11.30
2023-04-08T13:42:31.614Z,13.27
2023-04-08T13:44:58.742Z,11.80
2023-04-08T13:47:27.199Z,11.35
2023-04-08T13:49:54.325Z,11.95
2023-04-08T13:52:21.365Z,12.38
2023-04-08T13:54:48.181Z,13.00
2023-04-08T13:57:15.368Z,12.13
2023-04-08T13:59:43.948Z,12.90
2023-04-08T14:02:13.024Z,14.05
2023-04-08T14:04:40.355Z,11.82
2023-04-08T14:07:07.571Z,12.68
2023-04-08T14:09:35.826Z,12.70
2023-04-08T14:12:02.942Z,14.30
2023-04-08T14:14:29.906Z,13.57
2023-04-08T14:16:57.455Z,12.25
2023-04-08T14:19:24.390Z,12.88
2023-04-08T14:21:51.414Z,11.85
2023-04-08T14:24:18.545Z,13.10
2023-04-08T14:26:45.622Z,13.43
2023-04-08T14:29:12.711Z,13.40
2023-04-08T14:31:39.963Z,12.98
2023-04-08T14:34:06.989Z,12.73
2023-04-08T14:36:33.995Z,13.02
2023-04-08T14:39:01.114Z,13.25
2023-04-08T14:41:28.194Z,12.95
2023-04-08T14:43:55.469Z,13.23
2023-04-08T14:46:22.629Z,12.43
2023-04-08T14:48:50.142Z,12.05
2023-04-08T14:51:18.074Z,11.68
2023-04-08T14:53:44.883Z,12.77
2023-04-08T14:56:11.812Z,13.63
2023-04-08T14:58:41.205Z,12.40
2023-04-08T15:01:08.362Z,15.18
2023-04-08T15:03:35.500Z,12.48
2023-04-08T15:06:02.664Z,12.15
2023-04-08T15:08:29.722Z,12.02
2023-04-08T15:10:57.116Z,12.20
2023-04-08T15:13:23.997Z,11.43
2023-04-08T15:15:51.851Z,11.70
2023-04-08T15:18:18.878Z,11.35
2023-04-08T15:20:46.086Z,11.55
2023-04-08T15:23:13.087Z,10.70
2023-04-08T15:25:41.737Z,11.18
2023-04-08T15:28:08.798Z,10.98
2023-04-08T15:30:35.902Z,12.00
2023-04-08T15:33:06.220Z,11.02
2023-04-08T15:35:33.629Z,10.55
2023-04-08T15:38:01.204Z,11.13
2023-04-08T15:40:28.177Z,10.48
2023-04-08T15:42:56.015Z,10.32
2023-04-08T15:45:23.036Z,11.32
2023-04-08T15:47:50.068Z,12.43
2023-04-08T15:50:17.576Z,11.60
2023-04-08T15:52:44.753Z,11.52
2023-04-08T15:55:11.831Z,11.43
2023-04-08T15:57:38.909Z,11.48
2023-04-08T16:00:13.171Z,10.73
2023-04-08T16:02:40.914Z,11.68
2023-04-08T16:05:09.282Z,11.05
2023-04-08T16:07:36.252Z,11.77
2023-04-08T16:10:03.350Z,11.02
2023-04-08T16:12:30.449Z,11.25
2023-04-08T16:14:57.884Z,11.02
2023-04-08T16:17:24.982Z,11.00
2023-04-08T16:19:52.323Z,11.40
2023-04-08T16:22:19.535Z,12.00
2023-04-08T16:24:46.594Z,11.52
2023-04-08T16:27:13.688Z,12.35
2023-04-08T16:29:40.828Z,11.55
2023-04-08T16:32:09.058Z,11.70
2023-04-08T16:34:36.183Z,11.07
2023-04-08T16:37:03.051Z,11.35
2023-04-08T16:39:29.936Z,10.95
2023-04-08T16:41:56.826Z,11.52
2023-04-08T16:44:23.924Z,10.90
2023-04-08T16:46:50.857Z,10.68
2023-04-08T16:49:18.474Z,11.43
2023-04-08T16:51:45.546Z,11.10
2023-04-08T16:54:12.650Z,11.52
2023-04-08T16:56:44.455Z,12.48
2023-04-08T16:59:12.223Z,13.65
2023-04-08T17:01:39.460Z,12.90
2023-04-08T17:04:06.615Z,13.75
2023-04-08T17:06:35.133Z,12.93
2023-04-08T17:09:03.883Z,13.05
2023-04-08T17:11:31.509Z,22.77
2023-04-08T17:13:58.672Z,41.00
2023-04-08T17:16:25.866Z,23.38
2023-04-08T17:18:52.993Z,16.58
2023-04-08T17:21:20.348Z,16.85
2023-04-08T17:23:47.278Z,14.80
2023-04-08T17:26:14.608Z,15.82
2023-04-08T17:28:41.819Z,15.80
2023-04-08T17:31:09.561Z,15.60
2023-04-08T17:33:36.641Z,18.33
2023-04-08T17:36:03.786Z,17.55
2023-04-08T17:38:31.069Z,16.73
2023-04-08T17:40:58.012Z,17.67
2023-04-08T17:43:25.052Z,16.60
2023-04-08T17:45:51.999Z,17.13
2023-04-08T17:48:19.029Z,16.77
2023-04-08T17:50:45.990Z,16.52
2023-04-08T17:53:12.871Z,16.65
2023-04-08T17:55:39.668Z,16.80
2023-04-08T17:58:06.666Z,16.83
2023-04-08T18:00:33.712Z,16.38
2023-04-08T18:03:00.827Z,17.00
2023-04-08T18:05:29.162Z,17.95
2023-04-08T18:07:56.127Z,17.30
2023-04-08T18:10:24.590Z,19.40
2023-04-08T18:13:00.520Z,19.75
2023-04-08T18:15:37.292Z,21.00
2023-04-08T18:18:05.896Z,22.38
2023-04-08T18:20:39.055Z,24.23
2023-04-08T18:23:06.261Z,23.65
2023-04-08T18:25:34.608Z,24.58
2023-04-08T18:28:01.975Z,27.10
2023-04-08T18:30:30.160Z,26.90
2023-04-08T18:32:57.710Z,27.83
2023-04-08T18:35:25.834Z,27.58
2023-04-08T18:37:52.702Z,28.65
2023-04-08T18:40:20.171Z,28.30
2023-04-08T18:42:47.252Z,28.77
2023-04-08T18:45:14.365Z,29.13
2023-04-08T18:47:41.521Z,29.20
2023-04-08T18:50:09.247Z,27.30
2023-04-08T18:52:36.056Z,26.95
2023-04-08T18:55:03.470Z,27.90
2023-04-08T18:57:30.775Z,27.00
2023-04-08T18:59:57.847Z,28.05
2023-04-08T19:02:24.990Z,26.73
2023-04-08T19:04:52.253Z,26.05
2023-04-08T19:07:19.206Z,25.98
2023-04-08T19:09:46.397Z,27.15
2023-04-08T19:12:13.465Z,26.90
2023-04-08T19:14:42.042Z,25.50
2023-04-08T19:17:09.864Z,26.83
2023-04-08T19:19:36.860Z,28.27
2023-04-08T19:22:05.739Z,28.40
2023-04-08T19:24:33.177Z,27.15
2023-04-08T19:27:00.497Z,26.13
2023-04-08T19:29:29.802Z,26.35
2023-04-08T19:32:00.179Z,25.95
2023-04-08T19:34:27.509Z,25.60
2023-04-08T19:36:54.585Z,23.73
2023-04-08T19:39:22.606Z,24.98
2023-04-08T19:41:50.558Z,25.33
2023-04-08T19:44:17.365Z,25.00
2023-04-08T19:46:44.217Z,23.40
2023-04-08T19:49:11.409Z,25.92
2023-04-08T19:51:38.214Z,25.15
2023-04-08T19:54:05.166Z,24.67
2023-04-08T19:56:35.370Z,26.20
2023-04-08T19:59:02.537Z,25.58
2023-04-08T20:01:29.652Z,25.77
2023-04-08T20:03:56.741Z,26.75
2023-04-08T20:06:23.918Z,27.13
2023-04-08T20:08:53.284Z,26.90
2023-04-08T20:11:20.957Z,27.30
2023-04-08T20:13:49.405Z,29.27
2023-04-08T20:16:16.750Z,29.92
2023-04-08T20:18:44.842Z,30.95
2023-04-08T20:21:14.029Z,31.98
2023-04-08T20:23:44.535Z,31.42
2023-04-08T20:26:12.897Z,30.90
2023-04-08T20:28:40.489Z,32.25
2023-04-08T20:31:07.850Z,31.45
2023-04-08T20:33:35.742Z,30.75
2023-04-08T20:36:02.889Z,31.15
2023-04-08T20:38:31.768Z,29.08
2023-04-08T20:40:58.913Z,29.83
2023-04-08T20:43:26.238Z,29.95
2023-04-08T20:45:53.716Z,30.05
2023-04-08T20:48:20.569Z,30.52
2023-04-08T20:50:50.697Z,33.95
2023-04-08T20:53:19.565Z,30.45
2023-04-08T20:55:46.421Z,30.17
2023-04-08T20:58:13.278Z,30.42
2023-04-08T21:00:40.156Z,31.20
2023-04-08T21:03:10.805Z,33.17
2023-04-08T21:05:38.779Z,31.15
2023-04-08T21:08:06.570Z,34.10
2023-04-08T21:10:33.780Z,34.00
2023-04-08T21:13:01.334Z,33.67
2023-04-08T21:15:28.419Z,34.25
2023-04-08T21:17:55.441Z,34.40
2023-04-08T21:20:22.231Z,33.15
2023-04-08T21:22:49.123Z,36.88
2023-04-08T21:25:18.044Z,34.13
2023-04-08T21:27:45.095Z,35.30
2023-04-08T21:30:12.394Z,35.95
2023-04-08T21:32:39.228Z,35.58
2023-04-08T21:35:06.657Z,35.22
2023-04-08T21:37:34.645Z,34.75
2023-04-08T21:40:01.557Z,35.60
2023-04-08T21:42:28.889Z,37.75
2023-04-08T21:44:55.867Z,36.83
2023-04-08T21:47:22.819Z,37.65
2023-04-08T21:49:50.119Z,37.22
2023-04-08T21:52:17.929Z,37.67
2023-04-08T21:54:48.125Z,37.63
2023-04-08T21:57:15.368Z,37.85
2023-04-08T21:59:42.337Z,36.95
2023-04-08T22:02:11.437Z,37.28
2023-04-08T22:04:38.591Z,36.80
2023-04-08T22:07:05.556Z,36.33
2023-04-08T22:09:32.648Z,36.83
2023-04-08T22:11:59.574Z,38.55
2023-04-08T22:14:26.513Z,37.33
2023-04-08T22:16:53.492Z,37.70
2023-04-08T22:19:20.362Z,37.35
2023-04-08T22:21:47.208Z,38.75
2023-04-08T22:24:14.210Z,39.28
2023-04-08T22:26:41.356Z,40.85
2023-04-08T22:29:08.274Z,40.97
2023-04-08T22:31:35.553Z,40.75
2023-04-08T22:34:02.690Z,41.40
2023-04-08T22:36:29.563Z,39.80
2023-04-08T22:38:56.681Z,40.75
2023-04-08T22:41:24.302Z,42.50
2023-04-08T22:43:51.456Z,42.13
2023-04-08T22:46:18.688Z,42.97
2023-04-08T22:48:46.162Z,43.05
2023-04-08T22:51:13.516Z,42.45
2023-04-08T22:53:40.594Z,45.42
2023-04-08T22:56:07.500Z,44.92
2023-04-08T22:58:34.394Z,42.25
2023-04-08T23:01:02.544Z,43.63
2023-04-08T23:03:29.480Z,42.67
2023-04-08T23:05:56.288Z,42.80
2023-04-08T23:08:26.185Z,42.47
2023-04-08T23:10:53.204Z,43.65
2023-04-08T23:13:20.881Z,41.95
2023-04-08T23:15:47.741Z,41.20
2023-04-08T23:18:14.579Z,39.92
2023-04-08T23:20:42.997Z,42.30
2023-04-08T23:23:10.124Z,42.03
2023-04-08T23:25:36.893Z,39.30
2023-04-08T23:28:03.992Z,37.88
2023-04-08T23:30:30.851Z,37.53
2023-04-08T23:32:57.740Z,38.05
2023-04-08T23:35:24.580Z,38.65
2023-04-08T23:37:51.496Z,39.20
2023-04-08T23:40:18.445Z,38.47
2023-04-08T23:42:48.286Z,38.67
2023-04-08T23:45:15.515Z,38.90
2023-04-08T23:47:42.475Z,40.67
2023-04-08T23:50:12.582Z,39.47
2023-04-08T23:52:39.647Z,43.20
2023-04-08T23:55:06.742Z,44.78
2023-04-08T23:57:33.544Z,45.60
